sensor_id;sensor_type;location;lat;lon;timestamp;P1;durP1;ratioP1;P2;durP2;ratioP2
1959;SDS011;980;43.794;11.212;2023-08-17T08:56:51;27.75;;;26.25;;
1959;SDS011;980;43.794;11.212;2023-08-17T08:59:20;25.75;;;25.75;;
1959;SDS011;980;43.794;11.212;2023-08-17T09:01:46;24.00;;;23.67;;
1959;SDS011;980;43.794;11.212;2023-08-17T09:04:12;25.00;;;25.00;;
1959;SDS011;980;43.794;11.212;2023-08-17T09:06:37;23.67;;;23.33;;
1959;SDS011;980;43.794;11.212;2023-08-17T09:09:03;22.00;;;22.00;;
1959;SDS011;980;43.794;11.212;2023-08-17T09:11:29;23.00;;;22.25;;
1959;SDS011;980;43.794;11.212;2023-08-17T09:13:55;20.75;;;20.75;;
1959;SDS011;980;43.794;11.212;2023-08-17T09:16:20;23.50;;;23.50;;
1959;SDS011;980;43.794;11.212;2023-08-17T09:18:45;24.67;;;24.00;;
1959;SDS011;980;43.794;11.212;2023-08-17T09:21:23;20.00;;;20.00;;
1959;SDS011;980;43.794;11.212;2023-08-17T09:23:55;20.20;;;20.20;;
1959;SDS011;980;43.794;11.212;2023-08-17T09:26:21;20.60;;;20.20;;
1959;SDS011;980;43.794;11.212;2023-08-17T09:28:50;23.40;;;21.60;;
1959;SDS011;980;43.794;11.212;2023-08-17T09:31:16;28.25;;;28.00;;
1959;SDS011;980;43.794;11.212;2023-08-17T09:33:45;21.00;;;20.60;;
1959;SDS011;980;43.794;11.212;2023-08-17T09:36:13;22.25;;;22.25;;
1959;SDS011;980;43.794;11.212;2023-08-17T09:38:38;26.00;;;25.33;;
1959;SDS011;980;43.794;11.212;2023-08-17T09:41:03;29.00;;;27.33;;
1959;SDS011;980;43.794;11.212;2023-08-17T09:43:30;26.00;;;24.20;;
1959;SDS011;980;43.794;11.212;2023-08-17T09:45:58;21.40;;;21.00;;
1959;SDS011;980;43.794;11.212;2023-08-17T09:48:24;21.20;;;21.20;;
1959;SDS011;980;43.794;11.212;2023-08-17T09:50:49;22.50;;;21.25;;
1959;SDS011;980;43.794;11.212;2023-08-17T09:53:16;21.25;;;21.25;;
1959;SDS011;980;43.794;11.212;2023-08-17T09:55:42;20.20;;;20.20;;
1959;SDS011;980;43.794;11.212;2023-08-17T09:58:08;21.40;;;21.40;;
1959;SDS011;980;43.794;11.212;2023-08-17T10:00:33;21.50;;;21.50;;
1959;SDS011;980;43.794;11.212;2023-08-17T10:02:59;23.75;;;23.75;;
1959;SDS011;980;43.794;11.212;2023-08-17T10:05:26;31.00;;;28.50;;
1959;SDS011;980;43.794;11.212;2023-08-17T10:07:53;22.00;;;21.20;;
1959;SDS011;980;43.794;11.212;2023-08-17T10:10:23;22.33;;;22.00;;
1959;SDS011;980;43.794;11.212;2023-08-17T10:15:29;21.25;;;20.00;;
1959;SDS011;980;43.794;11.212;2023-08-17T10:20:23;21.00;;;20.50;;
1959;SDS011;980;43.794;11.212;2023-08-17T10:22:51;20.50;;;20.50;;
1959;SDS011;980;43.794;11.212;2023-08-17T10:25:17;21.25;;;21.25;;
1959;SDS011;980;43.794;11.212;2023-08-17T10:27:43;20.00;;;20.00;;
1959;SDS011;980;43.794;11.212;2023-08-17T10:30:09;23.00;;;22.67;;
1959;SDS011;980;43.794;11.212;2023-08-17T10:32:35;23.25;;;22.75;;
1959;SDS011;980;43.794;11.212;2023-08-17T10:35:01;22.00;;;20.67;;
1959;SDS011;980;43.794;11.212;2023-08-17T10:37:27;25.00;;;25.00;;
1959;SDS011;980;43.794;11.212;2023-08-17T10:39:53;22.25;;;22.25;;
1959;SDS011;980;43.794;11.212;2023-08-17T10:42:31;26.67;;;26.67;;
1959;SDS011;980;43.794;11.212;2023-08-17T10:44:57;24.75;;;23.50;;
1959;SDS011;980;43.794;11.212;2023-08-17T10:50:06;27.00;;;26.00;;
1959;SDS011;980;43.794;11.212;2023-08-17T10:52:44;27.00;;;27.00;;
1959;SDS011;980;43.794;11.212;2023-08-17T10:55:12;21.25;;;20.50;;
1959;SDS011;980;43.794;11.212;2023-08-17T10:57:38;25.00;;;23.00;;
1959;SDS011;980;43.794;11.212;2023-08-17T11:02:38;31.00;;;29.25;;
1959;SDS011;980;43.794;11.212;2023-08-17T11:05:04;30.67;;;29.00;;
1959;SDS011;980;43.794;11.212;2023-08-17T11:10:11;27.25;;;27.25;;
1959;SDS011;980;43.794;11.212;2023-08-17T11:12:37;21.25;;;21.25;;
1959;SDS011;980;43.794;11.212;2023-08-17T11:15:03;28.33;;;28.00;;
1959;SDS011;980;43.794;11.212;2023-08-17T11:17:28;19.00;;;19.00;;
1959;SDS011;980;43.794;11.212;2023-08-17T11:19:53;25.67;;;24.33;;
1959;SDS011;980;43.794;11.212;2023-08-17T11:22:19;25.33;;;25.33;;
1959;SDS011;980;43.794;11.212;2023-08-17T11:24:44;25.33;;;25.00;;
1959;SDS011;980;43.794;11.212;2023-08-17T11:27:10;23.50;;;23.50;;
1959;SDS011;980;43.794;11.212;2023-08-17T11:29:36;24.25;;;23.75;;
1959;SDS011;980;43.794;11.212;2023-08-17T11:32:03;26.33;;;24.33;;
1959;SDS011;980;43.794;11.212;2023-08-17T11:34:29;25.00;;;25.00;;
1959;SDS011;980;43.794;11.212;2023-08-17T11:36:56;23.67;;;19.67;;
1959;SDS011;980;43.794;11.212;2023-08-17T11:39:21;21.00;;;21.00;;
1959;SDS011;980;43.794;11.212;2023-08-17T11:41:47;24.00;;;24.00;;
1959;SDS011;980;43.794;11.212;2023-08-17T11:44:13;23.75;;;20.75;;
1959;SDS011;980;43.794;11.212;2023-08-17T11:46:39;20.50;;;20.25;;
1959;SDS011;980;43.794;11.212;2023-08-17T11:49:05;20.00;;;18.33;;
1959;SDS011;980;43.794;11.212;2023-08-17T11:51:33;19.00;;;19.00;;
1959;SDS011;980;43.794;11.212;2023-08-17T11:53:59;23.00;;;23.00;;
1959;SDS011;980;43.794;11.212;2023-08-17T11:56:24;19.25;;;19.25;;
1959;SDS011;980;43.794;11.212;2023-08-17T11:58:52;19.33;;;19.33;;
1959;SDS011;980;43.794;11.212;2023-08-17T12:01:18;19.75;;;19.75;;
1959;SDS011;980;43.794;11.212;2023-08-17T12:03:43;21.00;;;21.00;;
1959;SDS011;980;43.794;11.212;2023-08-17T12:06:09;20.00;;;20.00;;
1959;SDS011;980;43.794;11.212;2023-08-17T12:08:35;18.67;;;18.00;;
1959;SDS011;980;43.794;11.212;2023-08-17T12:11:00;19.33;;;18.33;;
1959;SDS011;980;43.794;11.212;2023-08-17T12:13:29;22.00;;;22.00;;
1959;SDS011;980;43.794;11.212;2023-08-17T12:15:55;23.25;;;22.75;;
1959;SDS011;980;43.794;11.212;2023-08-17T12:18:22;23.00;;;20.75;;
1959;SDS011;980;43.794;11.212;2023-08-17T12:20:51;21.67;;;20.33;;
1959;SDS011;980;43.794;11.212;2023-08-17T12:23:17;22.25;;;22.25;;
1959;SDS011;980;43.794;11.212;2023-08-17T12:25:42;21.33;;;21.33;;
1959;SDS011;980;43.794;11.212;2023-08-17T12:28:07;25.67;;;24.33;;
1959;SDS011;980;43.794;11.212;2023-08-17T12:30:33;28.00;;;26.00;;
1959;SDS011;980;43.794;11.212;2023-08-17T12:33:01;21.75;;;21.25;;
1959;SDS011;980;43.794;11.212;2023-08-17T12:35:26;25.00;;;24.33;;
1959;SDS011;980;43.794;11.212;2023-08-17T12:37:52;24.33;;;23.67;;
1959;SDS011;980;43.794;11.212;2023-08-17T12:40:17;20.00;;;20.00;;
1959;SDS011;980;43.794;11.212;2023-08-17T12:42:42;20.00;;;20.00;;
1959;SDS011;980;43.794;11.212;2023-08-17T12:45:08;18.33;;;18.00;;
1959;SDS011;980;43.794;11.212;2023-08-17T12:47:33;26.67;;;23.67;;
1959;SDS011;980;43.794;11.212;2023-08-17T12:49:58;27.67;;;26.67;;
1959;SDS011;980;43.794;11.212;2023-08-17T12:52:25;26.00;;;25.75;;
1959;SDS011;980;43.794;11.212;2023-08-17T12:54:50;26.00;;;25.67;;
1959;SDS011;980;43.794;11.212;2023-08-17T12:57:15;25.67;;;25.67;;
1959;SDS011;980;43.794;11.212;2023-08-17T12:59:41;27.67;;;26.00;;
1959;SDS011;980;43.794;11.212;2023-08-17T13:02:06;27.33;;;25.67;;
1959;SDS011;980;43.794;11.212;2023-08-17T13:04:31;25.67;;;24.00;;
1959;SDS011;980;43.794;11.212;2023-08-17T13:06:56;31.00;;;29.67;;
1959;SDS011;980;43.794;11.212;2023-08-17T13:09:22;28.33;;;28.00;;
1959;SDS011;980;43.794;11.212;2023-08-17T13:11:47;31.00;;;28.67;;
1959;SDS011;980;43.794;11.212;2023-08-17T13:14:14;25.67;;;25.00;;
1959;SDS011;980;43.794;11.212;2023-08-17T13:16:39;26.50;;;25.25;;
1959;SDS011;980;43.794;11.212;2023-08-17T13:19:04;25.67;;;25.67;;
1959;SDS011;980;43.794;11.212;2023-08-17T13:21:29;26.33;;;25.00;;
1959;SDS011;980;43.794;11.212;2023-08-17T13:23:55;28.33;;;27.00;;
1959;SDS011;980;43.794;11.212;2023-08-17T13:26:21;26.00;;;26.00;;
1959;SDS011;980;43.794;11.212;2023-08-17T13:28:47;28.00;;;26.75;;
1959;SDS011;980;43.794;11.212;2023-08-17T13:31:12;27.67;;;27.67;;
1959;SDS011;980;43.794;11.212;2023-08-17T13:33:37;28.67;;;28.00;;
1959;SDS011;980;43.794;11.212;2023-08-17T13:36:03;33.33;;;30.00;;
1959;SDS011;980;43.794;11.212;2023-08-17T13:38:28;26.00;;;25.33;;
1959;SDS011;980;43.794;11.212;2023-08-17T13:40:53;31.67;;;29.33;;
1959;SDS011;980;43.794;11.212;2023-08-17T13:43:19;25.33;;;24.33;;
1959;SDS011;980;43.794;11.212;2023-08-17T13:45:44;22.00;;;21.00;;
1959;SDS011;980;43.794;11.212;2023-08-17T13:48:09;29.00;;;27.00;;
1959;SDS011;980;43.794;11.212;2023-08-17T13:50:37;31.33;;;30.00;;
1959;SDS011;980;43.794;11.212;2023-08-17T13:53:02;31.50;;;30.25;;
1959;SDS011;980;43.794;11.212;2023-08-17T13:55:27;20.33;;;20.00;;
1959;SDS011;980;43.794;11.212;2023-08-17T13:57:54;33.50;;;28.75;;
1959;SDS011;980;43.794;11.212;2023-08-17T14:00:20;17.25;;;12.00;;
1959;SDS011;980;43.794;11.212;2023-08-17T14:02:46;21.67;;;19.67;;
1959;SDS011;980;43.794;11.212;2023-08-17T14:05:11;19.33;;;18.67;;
1959;SDS011;980;43.794;11.212;2023-08-17T14:07:36;33.00;;;30.00;;
1959;SDS011;980;43.794;11.212;2023-08-17T14:10:01;23.33;;;23.33;;
1959;SDS011;980;43.794;11.212;2023-08-17T14:12:27;13.33;;;13.00;;
1959;SDS011;980;43.794;11.212;2023-08-17T14:14:52;17.00;;;15.00;;
1959;SDS011;980;43.794;11.212;2023-08-17T14:17:18;8.67;;;8.67;;
1959;SDS011;980;43.794;11.212;2023-08-17T14:19:43;12.00;;;10.33;;
1959;SDS011;980;43.794;11.212;2023-08-17T14:22:08;14.00;;;14.00;;
1959;SDS011;980;43.794;11.212;2023-08-17T14:24:33;19.67;;;18.33;;
1959;SDS011;980;43.794;11.212;2023-08-17T14:26:59;10.67;;;9.00;;
1959;SDS011;980;43.794;11.212;2023-08-17T14:29:24;19.67;;;18.33;;
1959;SDS011;980;43.794;11.212;2023-08-17T14:31:50;12.33;;;11.00;;
1959;SDS011;980;43.794;11.212;2023-08-17T14:34:15;12.33;;;12.33;;
1959;SDS011;980;43.794;11.212;2023-08-17T14:36:41;14.00;;;12.67;;
1959;SDS011;980;43.794;11.212;2023-08-17T14:39:06;11.33;;;9.67;;
1959;SDS011;980;43.794;11.212;2023-08-17T14:41:31;15.67;;;14.00;;
1959;SDS011;980;43.794;11.212;2023-08-17T14:44:00;15.67;;;13.67;;
1959;SDS011;980;43.794;11.212;2023-08-17T14:46:26;13.75;;;12.75;;
1959;SDS011;980;43.794;11.212;2023-08-17T14:48:51;13.67;;;13.67;;
1959;SDS011;980;43.794;11.212;2023-08-17T14:51:16;15.33;;;14.67;;
1959;SDS011;980;43.794;11.212;2023-08-17T14:53:42;25.00;;;23.67;;
1959;SDS011;980;43.794;11.212;2023-08-17T14:56:07;15.33;;;15.00;;
1959;SDS011;980;43.794;11.212;2023-08-17T14:58:32;24.33;;;24.33;;
1959;SDS011;980;43.794;11.212;2023-08-17T15:00:58;22.67;;;22.33;;
1959;SDS011;980;43.794;11.212;2023-08-17T15:03:23;19.00;;;17.33;;
1959;SDS011;980;43.794;11.212;2023-08-17T15:05:48;18.00;;;15.33;;
1959;SDS011;980;43.794;11.212;2023-08-17T15:08:13;16.67;;;16.00;;
1959;SDS011;980;43.794;11.212;2023-08-17T15:10:40;23.50;;;19.75;;
1959;SDS011;980;43.794;11.212;2023-08-17T15:13:06;21.33;;;18.00;;
1959;SDS011;980;43.794;11.212;2023-08-17T15:15:31;17.33;;;17.00;;
1959;SDS011;980;43.794;11.212;2023-08-17T15:17:56;12.00;;;12.00;;
1959;SDS011;980;43.794;11.212;2023-08-17T15:20:21;17.33;;;16.00;;
1959;SDS011;980;43.794;11.212;2023-08-17T15:22:47;15.67;;;15.67;;
1959;SDS011;980;43.794;11.212;2023-08-17T15:25:12;18.67;;;17.33;;
1959;SDS011;980;43.794;11.212;2023-08-17T15:27:37;13.00;;;13.00;;
1959;SDS011;980;43.794;11.212;2023-08-17T15:30:03;14.33;;;13.33;;
1959;SDS011;980;43.794;11.212;2023-08-17T15:32:28;13.67;;;13.00;;
1959;SDS011;980;43.794;11.212;2023-08-17T15:34:53;15.00;;;15.00;;
1959;SDS011;980;43.794;11.212;2023-08-17T15:37:18;16.67;;;16.67;;
1959;SDS011;980;43.794;11.212;2023-08-17T15:39:44;16.00;;;15.33;;
1959;SDS011;980;43.794;11.212;2023-08-17T15:42:09;12.67;;;12.67;;
1959;SDS011;980;43.794;11.212;2023-08-17T15:44:34;15.33;;;14.67;;
1959;SDS011;980;43.794;11.212;2023-08-17T15:46:59;16.33;;;16.00;;
1959;SDS011;980;43.794;11.212;2023-08-17T15:49:25;17.33;;;16.67;;
1959;SDS011;980;43.794;11.212;2023-08-17T20:18:29;14.67;;;14.00;;
1959;SDS011;980;43.794;11.212;2023-08-17T20:20:54;17.33;;;17.00;;
1959;SDS011;980;43.794;11.212;2023-08-17T20:23:23;17.67;;;17.00;;
1959;SDS011;980;43.794;11.212;2023-08-17T20:25:48;18.67;;;18.33;;
1959;SDS011;980;43.794;11.212;2023-08-17T20:28:14;16.67;;;15.00;;
1959;SDS011;980;43.794;11.212;2023-08-17T20:30:42;17.00;;;15.00;;
1959;SDS011;980;43.794;11.212;2023-08-17T20:33:08;15.25;;;14.00;;
1959;SDS011;980;43.794;11.212;2023-08-17T20:35:34;15.00;;;15.00;;
1959;SDS011;980;43.794;11.212;2023-08-17T20:38:00;21.67;;;16.33;;
1959;SDS011;980;43.794;11.212;2023-08-17T20:40:25;17.67;;;17.67;;
1959;SDS011;980;43.794;11.212;2023-08-17T20:42:50;22.33;;;21.33;;
1959;SDS011;980;43.794;11.212;2023-08-17T20:45:15;13.67;;;13.67;;
1959;SDS011;980;43.794;11.212;2023-08-17T20:47:41;18.00;;;18.00;;
1959;SDS011;980;43.794;11.212;2023-08-17T20:50:07;15.33;;;15.33;;
1959;SDS011;980;43.794;11.212;2023-08-17T20:52:32;15.00;;;14.00;;
1959;SDS011;980;43.794;11.212;2023-08-17T20:54:58;15.00;;;13.67;;
1959;SDS011;980;43.794;11.212;2023-08-17T20:57:23;16.33;;;16.00;;
1959;SDS011;980;43.794;11.212;2023-08-17T20:59:49;15.33;;;15.00;;
1959;SDS011;980;43.794;11.212;2023-08-17T21:02:14;11.33;;;10.33;;
1959;SDS011;980;43.794;11.212;2023-08-17T21:04:39;16.33;;;16.33;;
1959;SDS011;980;43.794;11.212;2023-08-17T21:07:05;17.67;;;17.33;;
1959;SDS011;980;43.794;11.212;2023-08-17T21:09:30;16.67;;;16.00;;
1959;SDS011;980;43.794;11.212;2023-08-17T21:11:55;18.00;;;15.00;;
1959;SDS011;980;43.794;11.212;2023-08-17T21:14:23;19.75;;;16.75;;
1959;SDS011;980;43.794;11.212;2023-08-17T21:16:48;19.33;;;18.00;;
1959;SDS011;980;43.794;11.212;2023-08-17T21:19:13;16.33;;;15.67;;
1959;SDS011;980;43.794;11.212;2023-08-17T21:21:39;12.67;;;12.67;;
1959;SDS011;980;43.794;11.212;2023-08-17T21:24:04;22.00;;;21.00;;
1959;SDS011;980;43.794;11.212;2023-08-17T21:26:29;25.33;;;23.00;;
1959;SDS011;980;43.794;11.212;2023-08-17T21:28:55;24.00;;;23.33;;
1959;SDS011;980;43.794;11.212;2023-08-17T21:31:20;30.33;;;28.00;;
1959;SDS011;980;43.794;11.212;2023-08-17T21:33:45;26.67;;;24.67;;
1959;SDS011;980;43.794;11.212;2023-08-17T21:36:10;23.67;;;22.33;;
1959;SDS011;980;43.794;11.212;2023-08-17T21:38:36;20.67;;;20.33;;
1959;SDS011;980;43.794;11.212;2023-08-17T21:41:01;19.00;;;18.67;;
1959;SDS011;980;43.794;11.212;2023-08-17T21:43:27;31.00;;;28.67;;
1959;SDS011;980;43.794;11.212;2023-08-17T21:45:56;24.00;;;21.00;;
1959;SDS011;980;43.794;11.212;2023-08-17T21:48:21;46.50;;;37.25;;
1959;SDS011;980;43.794;11.212;2023-08-17T21:50:46;29.67;;;26.33;;
1959;SDS011;980;43.794;11.212;2023-08-17T21:53:13;39.25;;;33.50;;
1959;SDS011;980;43.794;11.212;2023-08-17T21:55:42;19.50;;;18.00;;
1959;SDS011;980;43.794;11.212;2023-08-17T21:58:08;17.50;;;17.00;;
1959;SDS011;980;43.794;11.212;2023-08-17T22:00:33;23.67;;;21.33;;
1959;SDS011;980;43.794;11.212;2023-08-17T22:02:59;26.33;;;23.67;;
1959;SDS011;980;43.794;11.212;2023-08-17T22:05:29;23.00;;;23.00;;
1959;SDS011;980;43.794;11.212;2023-08-17T22:07:54;31.00;;;29.25;;
1959;SDS011;980;43.794;11.212;2023-08-17T22:10:20;24.67;;;22.33;;
1959;SDS011;980;43.794;11.212;2023-08-17T22:12:47;23.33;;;22.33;;
1959;SDS011;980;43.794;11.212;2023-08-17T22:15:13;26.00;;;23.00;;
1959;SDS011;980;43.794;11.212;2023-08-17T22:17:38;38.00;;;32.25;;
1959;SDS011;980;43.794;11.212;2023-08-17T22:20:03;18.00;;;17.67;;
1959;SDS011;980;43.794;11.212;2023-08-17T22:22:29;21.00;;;20.67;;
1959;SDS011;980;43.794;11.212;2023-08-17T22:24:54;22.33;;;21.00;;
1959;SDS011;980;43.794;11.212;2023-08-17T22:27:19;20.33;;;20.00;;
1959;SDS011;980;43.794;11.212;2023-08-17T22:29:45;31.67;;;29.00;;
1959;SDS011;980;43.794;11.212;2023-08-17T22:32:10;27.00;;;26.00;;
1959;SDS011;980;43.794;11.212;2023-08-17T22:34:35;24.33;;;23.00;;
1959;SDS011;980;43.794;11.212;2023-08-17T22:37:01;31.50;;;29.25;;
1959;SDS011;980;43.794;11.212;2023-08-17T22:39:26;22.67;;;22.67;;
1959;SDS011;980;43.794;11.212;2023-08-17T22:41:51;27.67;;;26.67;;
1959;SDS011;980;43.794;11.212;2023-08-17T22:44:16;27.67;;;25.67;;
1959;SDS011;980;43.794;11.212;2023-08-17T22:46:42;41.50;;;34.50;;
1959;SDS011;980;43.794;11.212;2023-08-17T22:49:07;27.33;;;24.67;;
1959;SDS011;980;43.794;11.212;2023-08-17T22:51:32;39.00;;;34.00;;
1959;SDS011;980;43.794;11.212;2023-08-17T22:53:57;24.67;;;24.67;;
1959;SDS011;980;43.794;11.212;2023-08-17T22:56:24;27.67;;;27.33;;
1959;SDS011;980;43.794;11.212;2023-08-17T22:58:49;36.25;;;31.00;;
1959;SDS011;980;43.794;11.212;2023-08-17T23:01:14;25.67;;;24.33;;
1959;SDS011;980;43.794;11.212;2023-08-17T23:03:40;19.00;;;19.00;;
1959;SDS011;980;43.794;11.212;2023-08-17T23:06:05;21.33;;;20.33;;
1959;SDS011;980;43.794;11.212;2023-08-17T23:08:30;20.00;;;17.00;;
1959;SDS011;980;43.794;11.212;2023-08-17T23:10:59;19.33;;;18.00;;
1959;SDS011;980;43.794;11.212;2023-08-17T23:13:24;21.00;;;21.00;;
1959;SDS011;980;43.794;11.212;2023-08-17T23:15:50;27.25;;;27.00;;
1959;SDS011;980;43.794;11.212;2023-08-17T23:18:15;21.33;;;20.67;;
1959;SDS011;980;43.794;11.212;2023-08-17T23:20:40;23.00;;;22.00;;
1959;SDS011;980;43.794;11.212;2023-08-17T23:23:06;23.67;;;20.00;;
1959;SDS011;980;43.794;11.212;2023-08-17T23:25:31;19.33;;;19.33;;
1959;SDS011;980;43.794;11.212;2023-08-17T23:27:56;20.00;;;20.00;;
1959;SDS011;980;43.794;11.212;2023-08-17T23:30:21;19.67;;;17.00;;
1959;SDS011;980;43.794;11.212;2023-08-17T23:32:47;22.33;;;20.67;;
1959;SDS011;980;43.794;11.212;2023-08-17T23:35:12;24.00;;;24.00;;
1959;SDS011;980;43.794;11.212;2023-08-17T23:37:37;27.67;;;25.00;;
1959;SDS011;980;43.794;11.212;2023-08-17T23:40:02;24.67;;;20.00;;
1959;SDS011;980;43.794;11.212;2023-08-17T23:42:29;29.50;;;27.25;;
1959;SDS011;980;43.794;11.212;2023-08-17T23:44:54;26.25;;;25.00;;
1959;SDS011;980;43.794;11.212;2023-08-17T23:47:19;31.25;;;28.00;;
1959;SDS011;980;43.794;11.212;2023-08-17T23:49:44;27.75;;;25.25;;
1959;SDS011;980;43.794;11.212;2023-08-17T23:52:10;38.75;;;32.25;;
1959;SDS011;980;43.794;11.212;2023-08-17T23:54:35;27.67;;;24.33;;
1959;SDS011;980;43.794;11.212;2023-08-17T23:57:01;33.75;;;32.00;;
1959;SDS011;980;43.794;11.212;2023-08-17T23:59:26;31.75;;;29.50;;
